sensor_id;sensor_type;location;lat;lon;timestamp;P1;durP1;ratioP1;P2;durP2;ratioP2
47481;SDS011;33219;47.410;9.730;2023-07-09T00:01:46;7.67;;;3.60;;
47481;SDS011;33219;47.410;9.730;2023-07-09T00:04:14;5.28;;;3.40;;
47481;SDS011;33219;47.410;9.730;2023-07-09T00:06:42;6.47;;;3.40;;
47481;SDS011;33219;47.410;9.730;2023-07-09T00:09:15;5.65;;;3.17;;
47481;SDS011;33219;47.410;9.730;2023-07-09T00:11:41;6.28;;;3.60;;
47481;SDS011;33219;47.410;9.730;2023-07-09T00:14:09;5.92;;;3.50;;
47481;SDS011;33219;47.410;9.730;2023-07-09T00:16:38;5.67;;;3.35;;
47481;SDS011;33219;47.410;9.730;2023-07-09T00:19:19;5.83;;;3.30;;
47481;SDS011;33219;47.410;9.730;2023-07-09T00:21:44;5.80;;;3.83;;
47481;SDS011;33219;47.410;9.730;2023-07-09T00:24:15;6.53;;;3.37;;
47481;SDS011;33219;47.410;9.730;2023-07-09T00:26:42;6.20;;;3.52;;
47481;SDS011;33219;47.410;9.730;2023-07-09T00:29:10;7.17;;;3.47;;
47481;SDS011;33219;47.410;9.730;2023-07-09T00:31:39;5.45;;;3.80;;
47481;SDS011;33219;47.410;9.730;2023-07-09T00:34:10;5.45;;;3.65;;
47481;SDS011;33219;47.410;9.730;2023-07-09T00:36:40;5.87;;;3.47;;
47481;SDS011;33219;47.410;9.730;2023-07-09T00:41:43;5.65;;;3.52;;
47481;SDS011;33219;47.410;9.730;2023-07-09T00:44:34;6.25;;;3.80;;
47481;SDS011;33219;47.410;9.730;2023-07-09T00:49:36;6.55;;;3.80;;
47481;SDS011;33219;47.410;9.730;2023-07-09T00:52:33;6.85;;;3.33;;
47481;SDS011;33219;47.410;9.730;2023-07-09T00:54:49;7.45;;;3.60;;
47481;SDS011;33219;47.410;9.730;2023-07-09T00:57:19;7.10;;;3.47;;
47481;SDS011;33219;47.410;9.730;2023-07-09T00:59:50;4.97;;;3.60;;
47481;SDS011;33219;47.410;9.730;2023-07-09T01:02:19;5.08;;;3.15;;
47481;SDS011;33219;47.410;9.730;2023-07-09T01:04:52;6.28;;;3.60;;
47481;SDS011;33219;47.410;9.730;2023-07-09T01:07:22;8.05;;;3.80;;
47481;SDS011;33219;47.410;9.730;2023-07-09T01:09:50;5.33;;;3.50;;
47481;SDS011;33219;47.410;9.730;2023-07-09T01:12:18;6.00;;;3.65;;
47481;SDS011;33219;47.410;9.730;2023-07-09T01:14:49;6.70;;;3.87;;
47481;SDS011;33219;47.410;9.730;2023-07-09T01:17:18;5.87;;;3.77;;
47481;SDS011;33219;47.410;9.730;2023-07-09T01:19:49;5.12;;;3.30;;
47481;SDS011;33219;47.410;9.730;2023-07-09T01:22:17;4.75;;;3.37;;
47481;SDS011;33219;47.410;9.730;2023-07-09T01:24:58;5.90;;;3.60;;
47481;SDS011;33219;47.410;9.730;2023-07-09T01:27:32;6.72;;;3.83;;
47481;SDS011;33219;47.410;9.730;2023-07-09T01:29:59;6.22;;;3.72;;
47481;SDS011;33219;47.410;9.730;2023-07-09T01:32:29;6.87;;;4.03;;
47481;SDS011;33219;47.410;9.730;2023-07-09T01:34:58;6.62;;;3.72;;
47481;SDS011;33219;47.410;9.730;2023-07-09T01:37:28;6.25;;;3.55;;
47481;SDS011;33219;47.410;9.730;2023-07-09T01:39:56;7.15;;;3.87;;
47481;SDS011;33219;47.410;9.730;2023-07-09T01:42:25;7.12;;;3.85;;
47481;SDS011;33219;47.410;9.730;2023-07-09T01:44:54;7.53;;;3.67;;
47481;SDS011;33219;47.410;9.730;2023-07-09T01:47:22;7.67;;;3.72;;
47481;SDS011;33219;47.410;9.730;2023-07-09T01:49:50;7.22;;;3.60;;
47481;SDS011;33219;47.410;9.730;2023-07-09T01:52:20;5.50;;;3.47;;
47481;SDS011;33219;47.410;9.730;2023-07-09T01:54:49;5.00;;;3.47;;
47481;SDS011;33219;47.410;9.730;2023-07-09T01:57:17;4.97;;;3.40;;
47481;SDS011;33219;47.410;9.730;2023-07-09T01:59:52;5.08;;;3.30;;
47481;SDS011;33219;47.410;9.730;2023-07-09T02:02:21;5.20;;;3.52;;
47481;SDS011;33219;47.410;9.730;2023-07-09T02:04:54;6.87;;;3.35;;
47481;SDS011;33219;47.410;9.730;2023-07-09T02:07:23;5.78;;;3.55;;
47481;SDS011;33219;47.410;9.730;2023-07-09T02:09:51;7.37;;;3.70;;
47481;SDS011;33219;47.410;9.730;2023-07-09T02:12:19;5.72;;;3.50;;
47481;SDS011;33219;47.410;9.730;2023-07-09T02:14:46;6.15;;;3.62;;
47481;SDS011;33219;47.410;9.730;2023-07-09T02:17:15;8.93;;;4.03;;
47481;SDS011;33219;47.410;9.730;2023-07-09T02:19:43;5.58;;;3.40;;
47481;SDS011;33219;47.410;9.730;2023-07-09T02:22:11;6.42;;;3.70;;
47481;SDS011;33219;47.410;9.730;2023-07-09T02:24:38;6.70;;;3.90;;
47481;SDS011;33219;47.410;9.730;2023-07-09T02:27:07;5.90;;;3.95;;
47481;SDS011;33219;47.410;9.730;2023-07-09T02:29:36;7.22;;;4.17;;
47481;SDS011;33219;47.410;9.730;2023-07-09T02:32:04;7.30;;;4.00;;
47481;SDS011;33219;47.410;9.730;2023-07-09T02:34:32;4.90;;;3.60;;
47481;SDS011;33219;47.410;9.730;2023-07-09T02:37:01;6.05;;;3.87;;
47481;SDS011;33219;47.410;9.730;2023-07-09T02:39:28;6.50;;;3.85;;
47481;SDS011;33219;47.410;9.730;2023-07-09T02:41:56;6.08;;;3.92;;
47481;SDS011;33219;47.410;9.730;2023-07-09T02:44:23;6.72;;;3.87;;
47481;SDS011;33219;47.410;9.730;2023-07-09T02:46:51;7.62;;;3.35;;
47481;SDS011;33219;47.410;9.730;2023-07-09T02:49:18;6.62;;;4.05;;
47481;SDS011;33219;47.410;9.730;2023-07-09T02:51:46;5.58;;;3.55;;
47481;SDS011;33219;47.410;9.730;2023-07-09T02:54:13;5.70;;;3.75;;
47481;SDS011;33219;47.410;9.730;2023-07-09T02:56:41;6.12;;;3.98;;
47481;SDS011;33219;47.410;9.730;2023-07-09T02:59:08;4.95;;;3.62;;
47481;SDS011;33219;47.410;9.730;2023-07-09T03:01:37;6.15;;;3.70;;
47481;SDS011;33219;47.410;9.730;2023-07-09T03:04:05;6.97;;;3.83;;
47481;SDS011;33219;47.410;9.730;2023-07-09T03:06:34;6.37;;;4.00;;
47481;SDS011;33219;47.410;9.730;2023-07-09T03:09:04;6.40;;;3.45;;
47481;SDS011;33219;47.410;9.730;2023-07-09T03:11:32;7.05;;;3.85;;
47481;SDS011;33219;47.410;9.730;2023-07-09T03:14:01;6.03;;;3.60;;
47481;SDS011;33219;47.410;9.730;2023-07-09T03:16:31;6.03;;;3.60;;
47481;SDS011;33219;47.410;9.730;2023-07-09T03:18:59;8.08;;;3.70;;
47481;SDS011;33219;47.410;9.730;2023-07-09T03:21:29;7.47;;;3.75;;
47481;SDS011;33219;47.410;9.730;2023-07-09T03:23:57;7.70;;;3.80;;
47481;SDS011;33219;47.410;9.730;2023-07-09T03:26:25;7.42;;;3.92;;
47481;SDS011;33219;47.410;9.730;2023-07-09T03:28:54;6.92;;;3.80;;
47481;SDS011;33219;47.410;9.730;2023-07-09T03:31:22;6.03;;;3.37;;
47481;SDS011;33219;47.410;9.730;2023-07-09T03:33:50;7.62;;;3.55;;
47481;SDS011;33219;47.410;9.730;2023-07-09T03:36:19;5.65;;;3.67;;
47481;SDS011;33219;47.410;9.730;2023-07-09T03:38:47;6.10;;;3.58;;
47481;SDS011;33219;47.410;9.730;2023-07-09T03:41:15;5.58;;;3.90;;
47481;SDS011;33219;47.410;9.730;2023-07-09T03:43:43;6.90;;;3.70;;
47481;SDS011;33219;47.410;9.730;2023-07-09T03:46:10;5.80;;;3.87;;
47481;SDS011;33219;47.410;9.730;2023-07-09T03:48:38;6.17;;;3.65;;
47481;SDS011;33219;47.410;9.730;2023-07-09T03:51:06;6.10;;;3.85;;
47481;SDS011;33219;47.410;9.730;2023-07-09T03:53:33;7.05;;;3.60;;
47481;SDS011;33219;47.410;9.730;2023-07-09T03:56:01;4.90;;;3.33;;
47481;SDS011;33219;47.410;9.730;2023-07-09T03:58:28;6.15;;;3.70;;
47481;SDS011;33219;47.410;9.730;2023-07-09T04:00:56;7.53;;;3.85;;
47481;SDS011;33219;47.410;9.730;2023-07-09T04:03:24;6.10;;;3.67;;
47481;SDS011;33219;47.410;9.730;2023-07-09T04:05:51;5.95;;;3.80;;
47481;SDS011;33219;47.410;9.730;2023-07-09T04:08:19;7.17;;;3.72;;
47481;SDS011;33219;47.410;9.730;2023-07-09T04:10:46;5.87;;;3.77;;
47481;SDS011;33219;47.410;9.730;2023-07-09T04:13:14;5.65;;;3.77;;
47481;SDS011;33219;47.410;9.730;2023-07-09T04:15:41;7.97;;;4.05;;
47481;SDS011;33219;47.410;9.730;2023-07-09T04:18:10;5.67;;;3.90;;
47481;SDS011;33219;47.410;9.730;2023-07-09T04:20:38;8.78;;;3.90;;
47481;SDS011;33219;47.410;9.730;2023-07-09T04:23:05;6.12;;;3.75;;
47481;SDS011;33219;47.410;9.730;2023-07-09T04:25:33;6.67;;;3.90;;
47481;SDS011;33219;47.410;9.730;2023-07-09T04:28:01;7.40;;;3.83;;
47481;SDS011;33219;47.410;9.730;2023-07-09T04:30:28;5.22;;;3.80;;
47481;SDS011;33219;47.410;9.730;2023-07-09T04:32:56;6.35;;;3.58;;
47481;SDS011;33219;47.410;9.730;2023-07-09T04:35:24;6.08;;;3.65;;
47481;SDS011;33219;47.410;9.730;2023-07-09T04:37:52;6.87;;;4.28;;
47481;SDS011;33219;47.410;9.730;2023-07-09T04:40:19;6.20;;;3.33;;
47481;SDS011;33219;47.410;9.730;2023-07-09T04:42:47;5.62;;;3.50;;
47481;SDS011;33219;47.410;9.730;2023-07-09T04:45:14;7.05;;;3.75;;
47481;SDS011;33219;47.410;9.730;2023-07-09T04:47:42;5.90;;;3.85;;
47481;SDS011;33219;47.410;9.730;2023-07-09T04:50:10;7.37;;;3.55;;
47481;SDS011;33219;47.410;9.730;2023-07-09T04:52:39;6.35;;;3.67;;
47481;SDS011;33219;47.410;9.730;2023-07-09T04:55:06;6.10;;;3.50;;
47481;SDS011;33219;47.410;9.730;2023-07-09T04:57:34;5.37;;;3.30;;
47481;SDS011;33219;47.410;9.730;2023-07-09T05:00:03;8.00;;;3.70;;
47481;SDS011;33219;47.410;9.730;2023-07-09T05:02:31;5.20;;;3.50;;
47481;SDS011;33219;47.410;9.730;2023-07-09T05:04:59;10.50;;;3.80;;
47481;SDS011;33219;47.410;9.730;2023-07-09T05:07:32;6.00;;;3.45;;
47481;SDS011;33219;47.410;9.730;2023-07-09T05:09:57;7.50;;;3.70;;
47481;SDS011;33219;47.410;9.730;2023-07-09T05:12:26;5.95;;;3.50;;
47481;SDS011;33219;47.410;9.730;2023-07-09T05:14:57;5.70;;;3.40;;
47481;SDS011;33219;47.410;9.730;2023-07-09T05:17:24;5.62;;;3.85;;
47481;SDS011;33219;47.410;9.730;2023-07-09T05:19:52;6.58;;;3.67;;
47481;SDS011;33219;47.410;9.730;2023-07-09T05:22:20;5.33;;;3.50;;
47481;SDS011;33219;47.410;9.730;2023-07-09T05:24:47;5.42;;;3.50;;
47481;SDS011;33219;47.410;9.730;2023-07-09T05:27:15;5.33;;;3.70;;
47481;SDS011;33219;47.410;9.730;2023-07-09T05:29:43;5.55;;;3.70;;
47481;SDS011;33219;47.410;9.730;2023-07-09T05:32:10;5.80;;;3.77;;
47481;SDS011;33219;47.410;9.730;2023-07-09T05:34:38;6.90;;;3.50;;
47481;SDS011;33219;47.410;9.730;2023-07-09T05:37:05;6.22;;;3.80;;
47481;SDS011;33219;47.410;9.730;2023-07-09T05:39:33;4.97;;;3.37;;
47481;SDS011;33219;47.410;9.730;2023-07-09T05:42:00;5.33;;;3.60;;
47481;SDS011;33219;47.410;9.730;2023-07-09T05:44:28;5.00;;;3.20;;
47481;SDS011;33219;47.410;9.730;2023-07-09T05:46:55;5.92;;;3.22;;
47481;SDS011;33219;47.410;9.730;2023-07-09T05:49:23;6.12;;;4.00;;
47481;SDS011;33219;47.410;9.730;2023-07-09T05:51:50;5.05;;;3.37;;
47481;SDS011;33219;47.410;9.730;2023-07-09T05:54:18;5.45;;;3.62;;
47481;SDS011;33219;47.410;9.730;2023-07-09T05:56:45;5.97;;;3.45;;
47481;SDS011;33219;47.410;9.730;2023-07-09T05:59:13;5.70;;;3.55;;
47481;SDS011;33219;47.410;9.730;2023-07-09T06:01:41;4.87;;;3.37;;
47481;SDS011;33219;47.410;9.730;2023-07-09T06:04:08;5.62;;;3.70;;
47481;SDS011;33219;47.410;9.730;2023-07-09T06:06:37;5.78;;;3.80;;
47481;SDS011;33219;47.410;9.730;2023-07-09T06:09:07;5.22;;;3.35;;
47481;SDS011;33219;47.410;9.730;2023-07-09T06:11:35;5.33;;;3.40;;
47481;SDS011;33219;47.410;9.730;2023-07-09T06:14:03;6.67;;;3.85;;
47481;SDS011;33219;47.410;9.730;2023-07-09T06:16:31;4.95;;;3.72;;
47481;SDS011;33219;47.410;9.730;2023-07-09T06:18:59;5.35;;;3.45;;
47481;SDS011;33219;47.410;9.730;2023-07-09T06:21:26;6.42;;;3.95;;
47481;SDS011;33219;47.410;9.730;2023-07-09T06:23:54;4.25;;;3.33;;
47481;SDS011;33219;47.410;9.730;2023-07-09T06:26:21;6.25;;;3.95;;
47481;SDS011;33219;47.410;9.730;2023-07-09T06:28:49;4.62;;;3.42;;
47481;SDS011;33219;47.410;9.730;2023-07-09T06:31:17;5.53;;;3.42;;
47481;SDS011;33219;47.410;9.730;2023-07-09T06:33:47;5.90;;;3.60;;
47481;SDS011;33219;47.410;9.730;2023-07-09T06:36:16;5.10;;;3.50;;
47481;SDS011;33219;47.410;9.730;2023-07-09T06:38:45;5.50;;;3.70;;
47481;SDS011;33219;47.410;9.730;2023-07-09T06:41:13;4.58;;;3.35;;
47481;SDS011;33219;47.410;9.730;2023-07-09T06:43:42;5.33;;;3.50;;
47481;SDS011;33219;47.410;9.730;2023-07-09T06:46:10;5.08;;;3.60;;
47481;SDS011;33219;47.410;9.730;2023-07-09T06:48:39;5.10;;;3.90;;
47481;SDS011;33219;47.410;9.730;2023-07-09T06:51:07;5.15;;;3.58;;
47481;SDS011;33219;47.410;9.730;2023-07-09T06:53:35;4.28;;;3.75;;
47481;SDS011;33219;47.410;9.730;2023-07-09T06:56:02;4.25;;;3.47;;
47481;SDS011;33219;47.410;9.730;2023-07-09T06:58:31;5.15;;;3.50;;
47481;SDS011;33219;47.410;9.730;2023-07-09T07:01:03;5.30;;;3.70;;
47481;SDS011;33219;47.410;9.730;2023-07-09T07:03:31;4.70;;;3.58;;
47481;SDS011;33219;47.410;9.730;2023-07-09T07:06:00;5.60;;;3.95;;
47481;SDS011;33219;47.410;9.730;2023-07-09T07:08:28;5.37;;;3.90;;
47481;SDS011;33219;47.410;9.730;2023-07-09T07:10:57;5.92;;;3.62;;
47481;SDS011;33219;47.410;9.730;2023-07-09T07:13:33;7.08;;;3.70;;
47481;SDS011;33219;47.410;9.730;2023-07-09T07:16:04;4.65;;;3.47;;
47481;SDS011;33219;47.410;9.730;2023-07-09T07:18:33;4.97;;;3.60;;
47481;SDS011;33219;47.410;9.730;2023-07-09T07:21:01;6.75;;;3.90;;
47481;SDS011;33219;47.410;9.730;2023-07-09T07:23:30;5.97;;;3.60;;
47481;SDS011;33219;47.410;9.730;2023-07-09T07:25:57;5.05;;;3.60;;
47481;SDS011;33219;47.410;9.730;2023-07-09T07:28:25;4.58;;;3.55;;
47481;SDS011;33219;47.410;9.730;2023-07-09T07:31:03;5.53;;;3.65;;
47481;SDS011;33219;47.410;9.730;2023-07-09T07:33:33;6.50;;;4.17;;
47481;SDS011;33219;47.410;9.730;2023-07-09T07:36:03;5.10;;;3.40;;
47481;SDS011;33219;47.410;9.730;2023-07-09T07:38:31;5.08;;;3.42;;
47481;SDS011;33219;47.410;9.730;2023-07-09T07:40:59;5.60;;;3.80;;
47481;SDS011;33219;47.410;9.730;2023-07-09T07:43:28;5.20;;;3.50;;
47481;SDS011;33219;47.410;9.730;2023-07-09T07:45:55;6.67;;;3.95;;
47481;SDS011;33219;47.410;9.730;2023-07-09T07:48:23;5.15;;;3.75;;
47481;SDS011;33219;47.410;9.730;2023-07-09T07:50:57;6.05;;;3.80;;
47481;SDS011;33219;47.410;9.730;2023-07-09T07:53:27;5.55;;;3.70;;
47481;SDS011;33219;47.410;9.730;2023-07-09T07:55:56;5.28;;;3.67;;
47481;SDS011;33219;47.410;9.730;2023-07-09T07:58:24;5.53;;;3.60;;
47481;SDS011;33219;47.410;9.730;2023-07-09T08:00:55;5.97;;;3.47;;
47481;SDS011;33219;47.410;9.730;2023-07-09T08:03:29;7.62;;;4.00;;
47481;SDS011;33219;47.410;9.730;2023-07-09T08:05:57;5.85;;;3.80;;
47481;SDS011;33219;47.410;9.730;2023-07-09T08:08:25;5.95;;;3.80;;
47481;SDS011;33219;47.410;9.730;2023-07-09T08:10:59;5.53;;;3.70;;
47481;SDS011;33219;47.410;9.730;2023-07-09T08:13:31;5.20;;;3.40;;
47481;SDS011;33219;47.410;9.730;2023-07-09T08:15:59;6.13;;;3.80;;
47481;SDS011;33219;47.410;9.730;2023-07-09T08:18:27;4.12;;;3.40;;
47481;SDS011;33219;47.410;9.730;2023-07-09T08:20:55;5.15;;;3.62;;
47481;SDS011;33219;47.410;9.730;2023-07-09T08:23:22;6.28;;;3.60;;
47481;SDS011;33219;47.410;9.730;2023-07-09T08:25:53;4.80;;;3.47;;
47481;SDS011;33219;47.410;9.730;2023-07-09T08:28:21;5.55;;;3.47;;
47481;SDS011;33219;47.410;9.730;2023-07-09T08:30:54;3.98;;;3.33;;
47481;SDS011;33219;47.410;9.730;2023-07-09T08:33:19;5.22;;;3.40;;
47481;SDS011;33219;47.410;9.730;2023-07-09T08:35:50;4.85;;;3.60;;
47481;SDS011;33219;47.410;9.730;2023-07-09T08:38:19;5.12;;;3.60;;
47481;SDS011;33219;47.410;9.730;2023-07-09T08:41:35;5.80;;;3.67;;
47481;SDS011;33219;47.410;9.730;2023-07-09T08:45:57;5.42;;;3.55;;
47481;SDS011;33219;47.410;9.730;2023-07-09T08:48:35;6.42;;;3.58;;
47481;SDS011;33219;47.410;9.730;2023-07-09T08:51:08;5.45;;;3.80;;
47481;SDS011;33219;47.410;9.730;2023-07-09T08:53:44;4.67;;;3.45;;
47481;SDS011;33219;47.410;9.730;2023-07-09T08:56:29;6.97;;;3.58;;
47481;SDS011;33219;47.410;9.730;2023-07-09T08:58:59;5.58;;;3.45;;
47481;SDS011;33219;47.410;9.730;2023-07-09T09:01:33;5.53;;;3.60;;
47481;SDS011;33219;47.410;9.730;2023-07-09T09:04:13;6.12;;;3.35;;
47481;SDS011;33219;47.410;9.730;2023-07-09T09:06:39;4.42;;;3.40;;
47481;SDS011;33219;47.410;9.730;2023-07-09T09:11:54;4.35;;;3.50;;
47481;SDS011;33219;47.410;9.730;2023-07-09T09:14:28;5.78;;;3.47;;
47481;SDS011;33219;47.410;9.730;2023-07-09T09:17:09;6.75;;;3.95;;
47481;SDS011;33219;47.410;9.730;2023-07-09T09:22:22;5.58;;;3.45;;
47481;SDS011;33219;47.410;9.730;2023-07-09T09:27:39;5.92;;;3.45;;
47481;SDS011;33219;47.410;9.730;2023-07-09T09:30:17;4.62;;;3.65;;
47481;SDS011;33219;47.410;9.730;2023-07-09T09:32:45;5.20;;;3.15;;
47481;SDS011;33219;47.410;9.730;2023-07-09T09:37:55;4.10;;;3.05;;
47481;SDS011;33219;47.410;9.730;2023-07-09T09:40:25;5.58;;;3.35;;
47481;SDS011;33219;47.410;9.730;2023-07-09T09:42:56;7.78;;;3.62;;
47481;SDS011;33219;47.410;9.730;2023-07-09T09:45:29;5.92;;;3.52;;
47481;SDS011;33219;47.410;9.730;2023-07-09T09:47:58;6.25;;;3.60;;
47481;SDS011;33219;47.410;9.730;2023-07-09T09:50:25;6.50;;;3.80;;
47481;SDS011;33219;47.410;9.730;2023-07-09T09:52:56;6.58;;;3.80;;
47481;SDS011;33219;47.410;9.730;2023-07-09T09:55:24;6.67;;;3.83;;
47481;SDS011;33219;47.410;9.730;2023-07-09T09:57:54;4.37;;;3.30;;
47481;SDS011;33219;47.410;9.730;2023-07-09T10:00:24;6.50;;;3.98;;
47481;SDS011;33219;47.410;9.730;2023-07-09T10:02:58;4.20;;;3.22;;
47481;SDS011;33219;47.410;9.730;2023-07-09T10:05:32;4.28;;;3.50;;
47481;SDS011;33219;47.410;9.730;2023-07-09T10:08:06;5.25;;;3.62;;
47481;SDS011;33219;47.410;9.730;2023-07-09T10:10:36;5.42;;;3.75;;
47481;SDS011;33219;47.410;9.730;2023-07-09T10:13:19;5.33;;;3.52;;
47481;SDS011;33219;47.410;9.730;2023-07-09T10:16:34;7.03;;;4.03;;
47481;SDS011;33219;47.410;9.730;2023-07-09T10:26:37;6.87;;;4.05;;
47481;SDS011;33219;47.410;9.730;2023-07-09T10:29:24;6.87;;;4.10;;
47481;SDS011;33219;47.410;9.730;2023-07-09T10:34:54;6.35;;;4.40;;
47481;SDS011;33219;47.410;9.730;2023-07-09T10:40:01;6.10;;;4.30;;
47481;SDS011;33219;47.410;9.730;2023-07-09T10:42:48;5.40;;;4.33;;
47481;SDS011;33219;47.410;9.730;2023-07-09T10:45:22;6.92;;;4.33;;
47481;SDS011;33219;47.410;9.730;2023-07-09T10:47:48;5.42;;;4.28;;
47481;SDS011;33219;47.410;9.730;2023-07-09T10:50:27;6.08;;;4.20;;
47481;SDS011;33219;47.410;9.730;2023-07-09T10:52:54;6.78;;;4.20;;
47481;SDS011;33219;47.410;9.730;2023-07-09T10:58:00;6.15;;;4.15;;
47481;SDS011;33219;47.410;9.730;2023-07-09T11:00:34;4.70;;;4.10;;
47481;SDS011;33219;47.410;9.730;2023-07-09T11:03:04;7.83;;;4.22;;
47481;SDS011;33219;47.410;9.730;2023-07-09T11:05:34;6.90;;;3.90;;
47481;SDS011;33219;47.410;9.730;2023-07-09T11:08:06;5.20;;;3.87;;
47481;SDS011;33219;47.410;9.730;2023-07-09T11:10:41;8.63;;;4.25;;
47481;SDS011;33219;47.410;9.730;2023-07-09T11:15:54;6.35;;;3.87;;
47481;SDS011;33219;47.410;9.730;2023-07-09T11:18:24;7.25;;;3.37;;
47481;SDS011;33219;47.410;9.730;2023-07-09T11:21:07;5.90;;;4.08;;
47481;SDS011;33219;47.410;9.730;2023-07-09T11:23:38;5.60;;;3.67;;
47481;SDS011;33219;47.410;9.730;2023-07-09T11:26:21;6.83;;;3.75;;
47481;SDS011;33219;47.410;9.730;2023-07-09T11:29:23;6.12;;;3.62;;
47481;SDS011;33219;47.410;9.730;2023-07-09T11:31:36;4.70;;;3.47;;
47481;SDS011;33219;47.410;9.730;2023-07-09T11:34:14;6.53;;;3.80;;
47481;SDS011;33219;47.410;9.730;2023-07-09T11:36:56;6.10;;;3.60;;
47481;SDS011;33219;47.410;9.730;2023-07-09T11:40:02;5.80;;;3.58;;
47481;SDS011;33219;47.410;9.730;2023-07-09T11:42:25;7.70;;;3.70;;
47481;SDS011;33219;47.410;9.730;2023-07-09T11:45:08;4.83;;;3.20;;
47481;SDS011;33219;47.410;9.730;2023-07-09T11:47:45;5.87;;;3.00;;
47481;SDS011;33219;47.410;9.730;2023-07-09T11:50:23;5.65;;;2.98;;
47481;SDS011;33219;47.410;9.730;2023-07-09T11:52:54;4.20;;;2.72;;
47481;SDS011;33219;47.410;9.730;2023-07-09T11:55:41;3.92;;;2.65;;
47481;SDS011;33219;47.410;9.730;2023-07-09T11:58:13;5.97;;;3.15;;
47481;SDS011;33219;47.410;9.730;2023-07-09T12:00:41;5.73;;;2.90;;
47481;SDS011;33219;47.410;9.730;2023-07-09T12:03:26;4.78;;;2.60;;
47481;SDS011;33219;47.410;9.730;2023-07-09T12:06:05;7.67;;;4.28;;
47481;SDS011;33219;47.410;9.730;2023-07-09T12:08:52;4.25;;;2.75;;
47481;SDS011;33219;47.410;9.730;2023-07-09T12:11:25;7.58;;;3.22;;
47481;SDS011;33219;47.410;9.730;2023-07-09T12:14:03;5.97;;;3.00;;
47481;SDS011;33219;47.410;9.730;2023-07-09T12:16:33;5.33;;;3.10;;
47481;SDS011;33219;47.410;9.730;2023-07-09T12:19:05;5.25;;;3.35;;
47481;SDS011;33219;47.410;9.730;2023-07-09T12:21:34;5.12;;;2.80;;
47481;SDS011;33219;47.410;9.730;2023-07-09T12:24:04;5.05;;;3.40;;
47481;SDS011;33219;47.410;9.730;2023-07-09T12:26:40;5.62;;;3.17;;
47481;SDS011;33219;47.410;9.730;2023-07-09T12:29:08;6.00;;;3.20;;
47481;SDS011;33219;47.410;9.730;2023-07-09T12:31:37;5.78;;;2.92;;
47481;SDS011;33219;47.410;9.730;2023-07-09T12:34:10;7.33;;;3.20;;
47481;SDS011;33219;47.410;9.730;2023-07-09T12:36:46;5.78;;;3.20;;
47481;SDS011;33219;47.410;9.730;2023-07-09T12:39:12;4.62;;;3.35;;
47481;SDS011;33219;47.410;9.730;2023-07-09T12:41:41;5.58;;;2.80;;
47481;SDS011;33219;47.410;9.730;2023-07-09T12:44:21;5.45;;;2.62;;
47481;SDS011;33219;47.410;9.730;2023-07-09T12:46:41;4.83;;;3.08;;
47481;SDS011;33219;47.410;9.730;2023-07-09T12:49:13;6.30;;;2.90;;
47481;SDS011;33219;47.410;9.730;2023-07-09T12:51:55;5.30;;;2.95;;
47481;SDS011;33219;47.410;9.730;2023-07-09T12:54:23;4.05;;;2.42;;
47481;SDS011;33219;47.410;9.730;2023-07-09T12:56:52;5.42;;;2.58;;
47481;SDS011;33219;47.410;9.730;2023-07-09T12:59:21;4.67;;;2.65;;
47481;SDS011;33219;47.410;9.730;2023-07-09T13:04:33;3.90;;;2.72;;
47481;SDS011;33219;47.410;9.730;2023-07-09T13:07:03;4.22;;;3.00;;
47481;SDS011;33219;47.410;9.730;2023-07-09T13:09:31;4.28;;;2.45;;
47481;SDS011;33219;47.410;9.730;2023-07-09T13:12:03;3.77;;;2.37;;
47481;SDS011;33219;47.410;9.730;2023-07-09T13:14:30;4.30;;;2.12;;
47481;SDS011;33219;47.410;9.730;2023-07-09T13:17:04;6.00;;;3.10;;
47481;SDS011;33219;47.410;9.730;2023-07-09T13:19:33;4.35;;;2.60;;
47481;SDS011;33219;47.410;9.730;2023-07-09T13:22:01;4.20;;;2.60;;
47481;SDS011;33219;47.410;9.730;2023-07-09T13:24:30;5.78;;;2.30;;
47481;SDS011;33219;47.410;9.730;2023-07-09T13:26:59;5.08;;;2.35;;
47481;SDS011;33219;47.410;9.730;2023-07-09T13:29:31;5.30;;;2.40;;
47481;SDS011;33219;47.410;9.730;2023-07-09T13:31:58;4.28;;;2.35;;
47481;SDS011;33219;47.410;9.730;2023-07-09T13:34:26;3.90;;;2.60;;
47481;SDS011;33219;47.410;9.730;2023-07-09T13:36:57;5.45;;;2.77;;
47481;SDS011;33219;47.410;9.730;2023-07-09T13:39:25;3.30;;;2.15;;
47481;SDS011;33219;47.410;9.730;2023-07-09T13:41:53;4.53;;;2.60;;
47481;SDS011;33219;47.410;9.730;2023-07-09T13:44:22;4.78;;;2.50;;
47481;SDS011;33219;47.410;9.730;2023-07-09T13:46:51;4.87;;;2.17;;
47481;SDS011;33219;47.410;9.730;2023-07-09T13:49:20;4.90;;;2.37;;
47481;SDS011;33219;47.410;9.730;2023-07-09T13:51:50;4.62;;;2.17;;
47481;SDS011;33219;47.410;9.730;2023-07-09T13:54:26;3.07;;;2.20;;
47481;SDS011;33219;47.410;9.730;2023-07-09T13:56:52;4.78;;;2.67;;
47481;SDS011;33219;47.410;9.730;2023-07-09T13:59:21;5.17;;;2.35;;
47481;SDS011;33219;47.410;9.730;2023-07-09T14:01:51;3.65;;;2.17;;
47481;SDS011;33219;47.410;9.730;2023-07-09T14:04:21;4.75;;;2.75;;
47481;SDS011;33219;47.410;9.730;2023-07-09T14:06:50;3.45;;;2.20;;
47481;SDS011;33219;47.410;9.730;2023-07-09T14:09:17;4.65;;;2.50;;
47481;SDS011;33219;47.410;9.730;2023-07-09T14:11:46;5.70;;;2.77;;
47481;SDS011;33219;47.410;9.730;2023-07-09T14:14:19;5.33;;;2.40;;
47481;SDS011;33219;47.410;9.730;2023-07-09T14:16:49;4.30;;;2.60;;
47481;SDS011;33219;47.410;9.730;2023-07-09T14:19:19;4.62;;;2.65;;
47481;SDS011;33219;47.410;9.730;2023-07-09T14:21:48;5.45;;;2.92;;
47481;SDS011;33219;47.410;9.730;2023-07-09T14:24:24;3.42;;;2.30;;
47481;SDS011;33219;47.410;9.730;2023-07-09T14:26:54;4.78;;;2.80;;
47481;SDS011;33219;47.410;9.730;2023-07-09T14:29:23;4.50;;;3.02;;
47481;SDS011;33219;47.410;9.730;2023-07-09T14:31:52;4.80;;;3.08;;
47481;SDS011;33219;47.410;9.730;2023-07-09T14:34:29;5.17;;;3.33;;
47481;SDS011;33219;47.410;9.730;2023-07-09T14:36:59;4.78;;;3.40;;
47481;SDS011;33219;47.410;9.730;2023-07-09T14:39:27;5.08;;;3.42;;
47481;SDS011;33219;47.410;9.730;2023-07-09T14:41:55;5.45;;;3.10;;
47481;SDS011;33219;47.410;9.730;2023-07-09T14:44:26;6.83;;;3.02;;
47481;SDS011;33219;47.410;9.730;2023-07-09T14:46:56;4.43;;;3.50;;
47481;SDS011;33219;47.410;9.730;2023-07-09T14:49:25;6.30;;;3.58;;
47481;SDS011;33219;47.410;9.730;2023-07-09T14:51:54;5.55;;;3.50;;
47481;SDS011;33219;47.410;9.730;2023-07-09T14:54:29;5.22;;;3.35;;
47481;SDS011;33219;47.410;9.730;2023-07-09T14:56:58;5.80;;;3.20;;
47481;SDS011;33219;47.410;9.730;2023-07-09T14:59:25;6.05;;;3.08;;
47481;SDS011;33219;47.410;9.730;2023-07-09T15:01:53;5.50;;;3.00;;
47481;SDS011;33219;47.410;9.730;2023-07-09T15:06:59;5.97;;;3.05;;
47481;SDS011;33219;47.410;9.730;2023-07-09T15:09:27;5.85;;;3.20;;
47481;SDS011;33219;47.410;9.730;2023-07-09T15:11:58;6.78;;;3.25;;
47481;SDS011;33219;47.410;9.730;2023-07-09T15:14:27;4.78;;;2.92;;
47481;SDS011;33219;47.410;9.730;2023-07-09T15:16:54;4.97;;;3.20;;
47481;SDS011;33219;47.410;9.730;2023-07-09T15:19:22;4.87;;;2.98;;
47481;SDS011;33219;47.410;9.730;2023-07-09T15:21:50;5.05;;;2.35;;
47481;SDS011;33219;47.410;9.730;2023-07-09T15:24:26;5.12;;;2.30;;
47481;SDS011;33219;47.410;9.730;2023-07-09T15:26:55;4.80;;;2.75;;
47481;SDS011;33219;47.410;9.730;2023-07-09T15:29:24;5.65;;;2.72;;
47481;SDS011;33219;47.410;9.730;2023-07-09T15:31:54;5.85;;;2.70;;
47481;SDS011;33219;47.410;9.730;2023-07-09T15:34:21;5.35;;;2.70;;
47481;SDS011;33219;47.410;9.730;2023-07-09T15:36:50;8.75;;;2.85;;
47481;SDS011;33219;47.410;9.730;2023-07-09T15:39:19;7.55;;;3.00;;
47481;SDS011;33219;47.410;9.730;2023-07-09T15:41:47;5.30;;;2.77;;
47481;SDS011;33219;47.410;9.730;2023-07-09T15:44:15;5.78;;;3.02;;
47481;SDS011;33219;47.410;9.730;2023-07-09T15:46:51;4.62;;;2.87;;
47481;SDS011;33219;47.410;9.730;2023-07-09T15:49:20;5.83;;;2.90;;